createdAt,value
2022-12-24T00:04:18.729Z,17.289636
2022-12-24T00:09:20.639Z,17.385844
2022-12-24T00:14:22.693Z,17.511458
2022-12-24T00:19:24.548Z,17.289188
2022-12-24T00:24:26.383Z,17.291658
2022-12-24T00:29:28.357Z,17.035234
2022-12-24T00:34:30.734Z,16.800616
2022-12-24T00:39:33.079Z,17.03921
2022-12-24T00:44:34.905Z,17.155908
2022-12-24T00:49:36.809Z,17.181758
2022-12-24T00:54:38.621Z,16.875642
2022-12-24T00:59:40.513Z,16.993752
2022-12-24T01:04:42.518Z,16.82268
2022-12-24T01:09:44.427Z,17.027024
2022-12-24T01:14:45.876Z,17.100992
2022-12-24T01:19:47.469Z,16.877406
2022-12-24T01:24:49.349Z,16.848096
2022-12-24T01:29:50.921Z,15.951718
2022-12-24T01:34:52.725Z,16.553718
2022-12-24T01:39:54.494Z,16.516646
2022-12-24T01:44:56.472Z,16.670864
2022-12-24T01:49:58.142Z,16.122084
2022-12-24T01:55:00.331Z,15.52847
2022-12-24T02:00:02.289Z,15.189068
2022-12-24T02:05:04.332Z,15.937334
2022-12-24T02:10:06.063Z,16.104864
2022-12-24T02:15:07.913Z,15.354142
2022-12-24T02:20:09.955Z,15.372054
2022-12-24T02:25:11.738Z,15.753562
2022-12-24T02:30:13.543Z,16.093832
2022-12-24T02:35:15.578Z,16.22121
2022-12-24T02:40:17.797Z,15.882866
2022-12-24T02:45:19.655Z,16.557952
2022-12-24T02:50:21.446Z,16.667594
2022-12-24T02:55:23.440Z,16.039812
2022-12-24T03:00:25.226Z,16.562986
2022-12-24T03:05:26.989Z,15.746058
2022-12-24T03:10:28.571Z,15.062586
2022-12-24T03:15:30.183Z,15.668738
2022-12-24T03:20:31.775Z,15.880668
2022-12-24T03:25:33.463Z,15.26807
2022-12-24T03:30:35.035Z,15.637922
2022-12-24T03:35:36.714Z,15.77606
2022-12-24T03:40:38.268Z,16.238158
2022-12-24T03:45:39.832Z,15.784976
2022-12-24T03:50:41.336Z,15.417254
2022-12-24T03:55:42.929Z,15.56907
2022-12-24T04:00:44.606Z,15.60967
2022-12-24T04:05:46.354Z,16.02878
2022-12-24T04:10:47.865Z,16.164448
2022-12-24T04:15:49.468Z,16.571372
2022-12-24T04:20:51.182Z,16.991282
2022-12-24T04:25:52.901Z,17.239578
2022-12-24T04:30:54.368Z,17.397948
2022-12-24T04:35:56.108Z,17.911244
2022-12-24T04:40:57.648Z,17.87542
2022-12-24T04:45:59.262Z,17.54131
2022-12-24T04:51:01.064Z,19.023908
2022-12-24T04:56:03.102Z,18.943508
2022-12-24T05:01:04.862Z,18.564374
2022-12-24T05:06:06.919Z,19.254414
2022-12-24T05:11:08.417Z,19.473522
2022-12-24T05:16:09.900Z,19.573082
2022-12-24T05:21:11.436Z,20.220568
2022-12-24T05:26:13.011Z,20.962254
2022-12-24T05:31:14.633Z,21.365854
2022-12-24T05:36:16.776Z,21.531186
2022-12-24T05:41:18.707Z,21.251544
2022-12-24T05:46:20.565Z,21.548582
2022-12-24T05:51:22.613Z,22.982318
2022-12-24T05:56:24.429Z,22.08416
2022-12-24T06:01:26.332Z,23.055146
2022-12-24T06:06:28.484Z,23.915798
2022-12-24T06:11:29.951Z,24.080424
2022-12-24T06:16:31.535Z,24.324962
2022-12-24T06:21:33.604Z,24.680716
2022-12-24T06:26:35.551Z,24.22874
2022-12-24T06:31:37.603Z,24.70411
2022-12-24T06:36:39.552Z,24.372388
2022-12-24T06:41:41.489Z,25.443436
2022-12-24T06:46:43.457Z,24.878452
2022-12-24T06:51:45.249Z,24.53525
2022-12-24T06:56:46.859Z,24.764332
2022-12-24T07:01:48.608Z,26.405604
2022-12-24T07:06:50.552Z,26.065114
2022-12-24T07:11:52.063Z,26.935524
2022-12-24T07:16:58.765Z,26.905712
2022-12-24T07:22:00.920Z,28.235616
2022-12-24T07:27:02.757Z,26.708844
2022-12-24T07:32:04.657Z,27.376482
2022-12-24T07:37:06.606Z,28.262552
2022-12-24T07:42:08.647Z,28.045166
2022-12-24T07:47:10.631Z,28.491878
2022-12-24T07:52:12.825Z,29.080448
2022-12-24T07:57:14.748Z,28.604438
2022-12-24T08:02:18.725Z,28.541312
2022-12-24T08:07:21.306Z,28.875668
2022-12-24T08:12:23.283Z,28.382846
2022-12-24T08:17:30.331Z,29.559822
2022-12-24T08:22:36.183Z,29.293232
2022-12-24T08:27:38.120Z,30.013834
2022-12-24T08:32:39.938Z,29.753162
2022-12-24T08:37:42.109Z,29.549238
2022-12-24T08:42:44.067Z,30.58323
2022-12-24T08:47:46.212Z,30.862426
2022-12-24T08:52:47.774Z,29.9571
2022-12-24T08:57:49.656Z,30.244898
2022-12-24T09:02:51.622Z,30.49496
2022-12-24T09:07:53.377Z,31.33298
2022-12-24T09:12:55.076Z,30.739064
2022-12-24T09:17:56.741Z,31.479532
2022-12-24T09:22:58.291Z,30.593164
2022-12-24T09:28:00.041Z,30.831758
2022-12-24T09:33:01.592Z,30.620316
2022-12-24T09:38:03.647Z,31.311338
2022-12-24T09:43:05.172Z,30.689386
2022-12-24T09:48:06.831Z,29.830414
2022-12-24T09:53:08.523Z,30.215982
2022-12-24T09:58:09.980Z,31.638446
2022-12-24T10:03:11.482Z,32.385332
2022-12-24T10:08:13.170Z,31.053784
2022-12-24T10:13:14.944Z,29.97166
2022-12-24T10:18:16.494Z,31.362996
2022-12-24T10:23:18.299Z,30.117318
2022-12-24T10:28:20.208Z,31.176942
2022-12-24T10:33:22.237Z,30.64527
2022-12-24T10:38:24.810Z,30.81698
2022-12-24T10:43:26.553Z,30.57859
2022-12-24T10:48:28.228Z,30.060596
2022-12-24T10:53:29.853Z,30.124374
2022-12-24T10:58:31.801Z,29.852466
2022-12-24T11:03:33.430Z,31.208928
2022-12-24T11:08:35.183Z,30.119516
2022-12-24T11:13:38.375Z,30.560936
2022-12-24T11:18:45.143Z,31.453274
2022-12-24T11:23:50.323Z,31.251752
2022-12-24T11:28:52.171Z,28.797534
2022-12-24T11:33:53.629Z,29.637956
2022-12-24T11:38:56.226Z,30.24711
2022-12-24T11:43:57.823Z,29.805256
2022-12-24T11:49:05.896Z,30.754276
2022-12-24T11:54:09.726Z,29.849168
2022-12-24T11:59:11.880Z,30.730448
2022-12-24T12:04:13.674Z,30.449258
2022-12-24T12:09:15.817Z,31.227936
2022-12-24T12:14:18.122Z,30.458756
2022-12-24T12:19:19.945Z,30.473534
2022-12-24T12:24:25.461Z,31.323942
2022-12-24T12:29:30.349Z,31.545738
2022-12-24T12:34:32.168Z,30.59494
2022-12-24T12:39:34.424Z,30.366726
2022-12-24T12:44:36.608Z,30.90878
2022-12-24T12:49:38.191Z,29.998608
2022-12-24T12:54:40.204Z,30.3813
2022-12-24T12:59:42.003Z,29.91251
2022-12-24T13:04:44.090Z,29.68454
2022-12-24T13:09:46.169Z,29.438468
2022-12-24T13:14:48.115Z,29.425632
2022-12-24T13:19:49.573Z,29.5881
2022-12-24T13:24:52.168Z,28.189954
2022-12-24T13:29:54.038Z,27.462718
2022-12-24T13:34:55.624Z,28.294332
2022-12-24T13:39:57.706Z,27.889564
2022-12-24T13:44:59.377Z,27.74654
2022-12-24T13:50:00.823Z,28.891762
2022-12-24T13:55:02.326Z,29.040986
2022-12-24T14:00:03.978Z,28.48546
2022-12-24T14:05:05.952Z,28.88932
2022-12-24T14:10:07.855Z,29.244002
2022-12-24T14:15:10.009Z,28.798838
2022-12-24T14:20:11.795Z,28.501758
2022-12-24T14:25:13.509Z,28.868368
2022-12-24T14:30:15.249Z,28.838826
2022-12-24T14:35:17.216Z,29.537988
2022-12-24T14:40:19.323Z,29.331852
2022-12-24T14:45:21.039Z,28.756012
2022-12-24T14:50:22.850Z,28.902142
2022-12-24T14:55:24.656Z,29.125472
2022-12-24T15:00:26.386Z,28.764872
2022-12-24T15:05:28.107Z,29.168758
2022-12-24T15:10:30.036Z,28.734856
2022-12-24T15:15:32.045Z,28.371366
2022-12-24T15:20:33.722Z,28.43779
2022-12-24T15:25:35.465Z,28.542602
2022-12-24T15:30:37.384Z,28.027078
2022-12-24T15:35:39.273Z,27.326126
2022-12-24T15:40:41.252Z,27.633138
2022-12-24T15:45:43.217Z,27.588088
2022-12-24T15:50:45.171Z,27.013414
2022-12-24T15:55:47.258Z,26.96136
2022-12-24T16:00:49.074Z,26.931752
2022-12-24T16:05:50.625Z,26.55126
2022-12-24T16:10:52.388Z,26.683238
2022-12-24T16:15:54.013Z,26.157578
2022-12-24T16:20:55.498Z,26.035262
2022-12-24T16:25:57.002Z,26.139844
2022-12-24T16:30:58.616Z,26.458566
2022-12-24T16:36:00.115Z,26.008544
2022-12-24T16:41:01.812Z,26.813018
2022-12-24T16:46:03.612Z,26.465392
2022-12-24T16:51:05.264Z,25.81192
2022-12-24T16:56:07.099Z,25.448458
2022-12-24T17:01:09.108Z,25.242526
2022-12-24T17:06:10.855Z,25.27033
2022-12-24T17:11:12.533Z,24.861396
2022-12-24T17:16:14.140Z,25.534326
2022-12-24T17:21:15.803Z,25.097344
2022-12-24T17:26:17.543Z,24.815734
2022-12-24T17:31:19.479Z,24.953058
2022-12-24T17:36:21.176Z,24.394018
2022-12-24T17:41:22.861Z,24.472816
2022-12-24T17:46:24.483Z,24.075132
2022-12-24T17:51:26.302Z,23.943602
2022-12-24T17:56:27.831Z,23.458068
2022-12-24T18:01:29.913Z,23.714072
2022-12-24T18:06:31.809Z,23.39824
2022-12-24T18:11:33.824Z,23.92109
2022-12-24T18:16:35.702Z,24.040258
2022-12-24T18:21:37.615Z,23.774552
2022-12-24T18:26:39.525Z,23.634622
2022-12-24T18:31:41.480Z,23.584306
2022-12-24T18:36:43.150Z,23.263426
2022-12-24T18:41:45.719Z,23.338018
2022-12-24T18:46:47.550Z,23.040776
2022-12-24T18:51:49.069Z,22.909246
2022-12-24T18:56:50.519Z,21.907498
2022-12-24T19:01:52.541Z,22.1454
2022-12-24T19:06:54.219Z,22.116958
2022-12-24T19:11:55.891Z,22.413372
2022-12-24T19:16:57.555Z,21.51782
2022-12-24T19:21:59.356Z,22.22755
2022-12-24T19:27:01.328Z,21.204444
2022-12-24T19:32:03.566Z,21.910198
2022-12-24T19:37:05.509Z,21.625956
2022-12-24T19:42:07.505Z,21.502432
2022-12-24T19:47:09.487Z,21.474818
2022-12-24T19:52:11.863Z,21.434896
2022-12-24T19:57:13.648Z,21.047376
2022-12-24T20:02:15.737Z,21.345296
2022-12-24T20:07:17.791Z,21.520968
2022-12-24T20:12:19.749Z,21.14315
2022-12-24T20:17:21.808Z,20.830222
2022-12-24T20:22:23.588Z,20.68633
2022-12-24T20:27:25.373Z,21.175812
2022-12-24T20:32:29.542Z,21.0028
2022-12-24T20:37:31.556Z,20.663384
2022-12-24T20:42:33.537Z,20.651904
2022-12-24T20:47:35.569Z,20.235698
2022-12-24T20:52:37.474Z,20.420244
2022-12-24T20:57:39.228Z,20.700524
2022-12-24T21:02:41.250Z,20.297304
2022-12-24T21:07:43.109Z,20.791888
2022-12-24T21:12:45.114Z,20.20442
2022-12-24T21:17:46.933Z,20.186074
2022-12-24T21:22:48.812Z,19.793886
2022-12-24T21:27:50.613Z,19.662614
2022-12-24T21:32:52.359Z,19.811798
2022-12-24T21:37:53.818Z,19.869428
2022-12-24T21:42:56.137Z,19.820428
2022-12-24T21:47:57.936Z,19.580328
2022-12-24T21:52:59.459Z,19.340038
2022-12-24T21:58:01.241Z,19.420112
2022-12-24T22:03:03.057Z,18.458816
2022-12-24T22:08:04.647Z,18.594132
2022-12-24T22:13:06.803Z,19.303658
2022-12-24T22:18:08.901Z,19.193948
2022-12-24T22:23:10.737Z,18.426168
2022-12-24T22:28:12.634Z,18.669864
2022-12-24T22:33:14.613Z,18.595014
2022-12-24T22:38:16.416Z,18.959398
2022-12-24T22:43:18.521Z,19.127552
2022-12-24T22:48:20.138Z,18.525538
2022-12-24T22:53:22.244Z,18.305996
2022-12-24T22:58:24.029Z,18.658832
2022-12-24T23:03:26.088Z,18.277052
2022-12-24T23:08:27.715Z,18.215446
2022-12-24T23:13:29.919Z,18.683108
2022-12-24T23:18:31.828Z,18.678698
2022-12-24T23:23:37.061Z,18.673392
2022-12-24T23:28:39.406Z,19.26854
2022-12-24T23:33:41.593Z,19.429448
2022-12-24T23:38:43.470Z,19.173906
2022-12-24T23:43:45.692Z,18.755936
2022-12-24T23:48:47.660Z,18.747292
2022-12-24T23:53:49.555Z,18.744198
2022-12-24T23:58:51.347Z,18.089914
